Time;durP1;ratioP1;P1;durP2;ratioP2;P2;SDS_P1;SDS_P2;PMS_P1;PMS_P2;Temp;Humidity;BMP_temperature;BMP_pressure;BME280_temperature;BME280_humidity;BME280_pressure;Samples;Min_cycle;Max_cycle;Signal;HPM_P1;HPM_P2
2022/04/21 00:01:05;;;;;;;7.23;5.70;;;6.50;97.40;;;;;;5031279;28;20415;-71
2022/04/21 00:03:30;;;;;;;6.53;5.20;;;6.50;97.00;;;;;;5013208;28;20199;-70
2022/04/21 00:05:56;;;;;;;5.80;4.57;;;6.50;96.50;;;;;;5031148;28;20250;-70
2022/04/21 00:08:21;;;;;;;8.53;5.93;;;6.70;95.80;;;;;;5031110;28;20282;-69
2022/04/21 00:10:47;;;;;;;7.20;4.87;;;6.90;95.50;;;;;;5013435;28;20572;-70
2022/04/21 00:13:13;;;;;;;13.27;6.03;;;6.90;96.00;;;;;;5031412;28;20221;-69
2022/04/21 00:15:39;;;;;;;8.63;5.67;;;7.00;95.10;;;;;;5031820;28;20181;-70
2022/04/21 00:18:05;;;;;;;10.87;6.33;;;7.10;95.40;;;;;;5033153;28;20210;-69
2022/04/21 00:20:31;;;;;;;8.60;5.03;;;7.20;95.00;;;;;;5014740;28;20435;-69
2022/04/21 00:25:41;;;;;;;6.77;5.70;;;7.30;94.50;;;;;;5032013;28;20218;-69
2022/04/21 00:28:06;;;;;;;9.07;6.63;;;7.30;94.40;;;;;;5032434;28;20443;-69
2022/04/21 00:30:32;;;;;;;11.10;6.50;;;7.30;94.50;;;;;;5032985;28;20192;-69
2022/04/21 00:32:58;;;;;;;14.60;6.90;;;7.30;94.70;;;;;;5033221;28;20215;-69
2022/04/21 00:35:24;;;;;;;8.03;6.00;;;7.30;94.50;;;;;;5031916;28;20205;-70
2022/04/21 00:37:54;;;;;;;8.67;6.67;;;7.40;94.00;;;;;;5031143;28;20239;-70
2022/04/21 00:40:22;;;;;;;7.87;6.93;;;7.40;93.80;;;;;;5030896;28;20855;-70
2022/04/21 00:42:48;;;;;;;8.20;6.67;;;7.50;93.70;;;;;;5031014;28;20412;-70
2022/04/21 00:45:14;;;;;;;8.13;5.90;;;7.50;93.70;;;;;;5030680;28;20510;-70
2022/04/21 00:47:43;;;;;;;10.07;5.60;;;7.50;93.50;;;;;;5030837;28;20300;-70
2022/04/21 00:50:30;;;;;;;10.53;5.50;;;7.50;93.80;;;;;;5013291;28;20439;-70
2022/04/21 00:52:57;;;;;;;9.63;6.13;;;7.40;94.40;;;;;;5011855;28;20991;-70
2022/04/21 00:55:23;;;;;;;6.40;5.50;;;7.30;95.20;;;;;;5029860;28;20423;-71
2022/04/21 00:57:50;;;;;;;9.23;5.40;;;7.00;95.60;;;;;;5029905;28;20518;-70
2022/04/21 01:00:17;;;;;;;6.80;5.80;;;6.80;95.40;;;;;;5029640;28;20574;-70
2022/04/21 01:02:46;;;;;;;6.30;5.60;;;6.60;96.20;;;;;;5029911;28;20422;-70
2022/04/21 01:05:14;;;;;;;9.47;5.23;;;6.50;96.70;;;;;;5029873;28;20900;-70
2022/04/21 01:07:40;;;;;;;11.03;5.87;;;6.40;97.40;;;;;;5029461;28;20929;-70
2022/04/21 01:10:06;;;;;;;9.47;6.40;;;6.30;97.70;;;;;;5029990;28;20434;-70
2022/04/21 01:12:32;;;;;;;8.97;6.07;;;6.30;98.00;;;;;;5029467;28;20489;-70
2022/04/21 01:14:58;;;;;;;8.10;6.17;;;6.20;98.20;;;;;;5029508;28;20419;-72
2022/04/21 01:17:35;;;;;;;8.77;6.07;;;6.20;98.30;;;;;;5029250;28;20819;-70
2022/04/21 01:20:01;;;;;;;7.30;6.00;;;6.30;99.30;;;;;;5029352;28;20672;-69
2022/04/21 01:22:27;;;;;;;9.37;6.67;;;6.20;98.70;;;;;;5029260;28;20931;-70
2022/04/21 01:24:53;;;;;;;7.90;6.40;;;6.10;98.40;;;;;;5029165;28;20538;-70
2022/04/21 01:27:19;;;;;;;6.83;6.17;;;6.20;98.60;;;;;;5029593;28;20523;-70
2022/04/21 01:29:44;;;;;;;9.00;6.23;;;6.20;99.30;;;;;;5029492;28;20234;-70
2022/04/21 01:32:10;;;;;;;9.77;6.23;;;6.00;99.10;;;;;;5011487;28;20516;-70
2022/04/21 01:34:38;;;;;;;10.87;6.87;;;6.00;99.10;;;;;;5029310;28;20685;-70
2022/04/21 01:42:32;;;;;;;8.43;6.67;;;5.70;99.90;;;;;;5014144;28;20415;-70
2022/04/21 01:44:58;;;;;;;8.57;6.47;;;5.80;99.90;;;;;;5029093;28;20838;-69
2022/04/21 01:47:23;;;;;;;8.20;6.93;;;5.80;99.90;;;;;;5028787;28;20204;-69
2022/04/21 01:49:49;;;;;;;10.57;6.73;;;5.70;99.90;;;;;;5029262;28;20183;-70
2022/04/21 01:52:16;;;;;;;8.07;6.20;;;5.80;99.90;;;;;;5028893;28;20212;-70
2022/04/21 01:54:41;;;;;;;6.93;6.17;;;5.80;99.90;;;;;;5011375;28;20222;-70
2022/04/21 01:57:07;;;;;;;9.43;6.80;;;5.80;99.90;;;;;;5028856;28;21003;-70
2022/04/21 01:59:32;;;;;;;7.80;6.30;;;5.80;99.90;;;;;;5011095;28;20176;-70
2022/04/21 02:01:58;;;;;;;9.30;5.70;;;5.80;99.90;;;;;;5028752;28;20234;-70
2022/04/21 02:04:24;;;;;;;9.90;6.40;;;5.70;99.90;;;;;;5028794;28;20187;-70
2022/04/21 02:06:49;;;;;;;8.10;6.80;;;5.60;99.90;;;;;;5028690;28;20231;-70
2022/04/21 02:09:15;;;;;;;8.90;6.13;;;5.60;99.90;;;;;;5010935;28;20226;-70
2022/04/21 02:11:41;;;;;;;7.97;6.60;;;5.60;99.90;;;;;;5010715;28;20212;-70
2022/04/21 02:14:06;;;;;;;8.70;6.50;;;5.60;99.90;;;;;;5028723;28;20262;-70
2022/04/21 02:16:32;;;;;;;9.40;6.00;;;5.40;99.90;;;;;;5028440;28;20711;-70
2022/04/21 02:18:58;;;;;;;7.60;6.80;;;5.40;99.90;;;;;;5028615;28;20207;-70
2022/04/21 02:21:23;;;;;;;6.87;6.20;;;5.30;99.90;;;;;;5028581;28;20289;-70
2022/04/21 02:23:49;;;;;;;7.60;6.50;;;5.30;99.90;;;;;;5028524;28;20267;-70
2022/04/21 02:26:14;;;;;;;9.03;6.80;;;5.10;99.90;;;;;;5028379;28;20216;-70
2022/04/21 02:28:40;;;;;;;8.40;6.33;;;5.10;99.90;;;;;;5028488;28;20184;-69
2022/04/21 02:31:06;;;;;;;8.10;6.87;;;5.10;99.90;;;;;;5028374;28;20559;-69
2022/04/21 02:33:31;;;;;;;8.80;7.30;;;5.00;99.90;;;;;;5028473;28;20805;-69
2022/04/21 02:35:57;;;;;;;10.90;6.57;;;5.10;99.90;;;;;;5028546;28;20519;-69
2022/04/21 02:38:23;;;;;;;9.53;6.70;;;5.00;99.90;;;;;;5028331;28;20277;-71
2022/04/21 02:40:49;;;;;;;8.67;6.80;;;4.90;99.90;;;;;;5028414;28;20186;-69
2022/04/21 02:43:15;;;;;;;11.90;8.23;;;4.80;99.90;;;;;;5010304;28;20446;-69
2022/04/21 02:45:42;;;;;;;18.10;12.07;;;4.70;99.90;;;;;;5010395;28;20612;-70
2022/04/21 02:48:08;;;;;;;12.23;8.77;;;4.60;99.90;;;;;;5028217;28;20219;-70
2022/04/21 02:50:34;;;;;;;7.60;6.50;;;4.70;99.90;;;;;;5028229;28;20433;-70
2022/04/21 02:53:00;;;;;;;8.27;6.67;;;4.80;99.90;;;;;;5030398;28;21255;-70
2022/04/21 02:58:11;;;;;;;9.18;6.30;;;4.80;99.90;;;;;;5031928;28;20265;-70
2022/04/21 03:00:36;;;;;;;10.27;6.60;;;4.70;99.90;;;;;;5032000;28;20202;-69
2022/04/21 03:03:02;;;;;;;14.53;6.73;;;4.60;99.90;;;;;;5031924;28;20793;-69
2022/04/21 03:05:27;;;;;;;9.53;6.70;;;4.50;99.90;;;;;;5032325;28;20250;-69
2022/04/21 03:07:54;;;;;;;8.10;6.60;;;4.50;99.90;;;;;;5031856;28;20292;-69
2022/04/21 03:10:20;;;;;;;9.80;7.30;;;4.40;99.90;;;;;;5031979;28;20181;-70
2022/04/21 03:12:46;;;;;;;8.40;6.57;;;4.40;99.90;;;;;;5031755;28;20504;-70
2022/04/21 03:15:12;;;;;;;7.83;6.67;;;4.30;99.90;;;;;;5031615;28;20905;-69
2022/04/21 03:17:41;;;;;;;12.17;7.93;;;4.30;99.90;;;;;;5031488;28;20526;-69
2022/04/21 03:20:08;;;;;;;9.73;6.87;;;4.30;99.90;;;;;;5031150;28;20411;-69
2022/04/21 03:25:18;;;;;;;9.80;6.87;;;4.30;99.90;;;;;;5031782;28;20457;-69
2022/04/21 03:27:48;;;;;;;8.63;6.87;;;4.30;99.90;;;;;;5013707;28;20938;-69
2022/04/21 03:30:14;;;;;;;8.13;6.43;;;4.30;99.90;;;;;;5031484;28;20419;-69
2022/04/21 03:32:40;;;;;;;8.97;6.47;;;4.30;99.90;;;;;;5013311;28;21037;-69
2022/04/21 03:35:06;;;;;;;9.80;6.73;;;4.40;99.90;;;;;;5031409;28;20281;-69
2022/04/21 03:37:32;;;;;;;7.10;6.40;;;4.40;99.90;;;;;;5031359;28;20208;-69
2022/04/21 03:39:58;;;;;;;11.03;6.90;;;4.40;99.90;;;;;;5031345;28;20900;-69
2022/04/21 03:42:26;;;;;;;11.23;7.60;;;4.30;99.90;;;;;;5031254;28;20468;-69
2022/04/21 03:44:52;;;;;;;10.13;7.80;;;4.20;99.90;;;;;;5031312;28;20648;-69
2022/04/21 03:47:19;;;;;;;9.33;7.50;;;4.20;99.90;;;;;;5031096;28;20470;-69
2022/04/21 03:49:44;;;;;;;9.00;6.63;;;4.00;99.90;;;;;;5013391;28;20438;-69
2022/04/21 03:52:10;;;;;;;8.80;7.03;;;3.90;99.90;;;;;;5013291;28;20470;-69
2022/04/21 03:54:37;;;;;;;10.60;7.10;;;3.90;99.90;;;;;;5031069;28;20192;-69
2022/04/21 03:57:03;;;;;;;8.20;6.63;;;3.80;99.90;;;;;;5030980;28;20291;-68
2022/04/21 03:59:28;;;;;;;9.50;6.33;;;3.60;99.90;;;;;;5031049;28;20561;-69
2022/04/21 04:01:57;;;;;;;9.43;7.30;;;3.70;99.90;;;;;;5030832;28;20934;-68
2022/04/21 04:04:22;;;;;;;9.18;6.65;;;3.60;99.90;;;;;;5012639;28;20219;-69
2022/04/21 04:12:16;;;;;;;9.47;6.67;;;4.00;99.90;;;;;;5031458;28;20282;-72
2022/04/21 04:14:42;;;;;;;10.07;7.43;;;4.10;99.90;;;;;;5013730;28;20449;-71
2022/04/21 04:17:08;;;;;;;8.77;6.63;;;4.10;99.90;;;;;;5013676;28;20208;-71
2022/04/21 04:19:35;;;;;;;11.03;7.10;;;4.00;99.90;;;;;;5013474;28;20430;-71
2022/04/21 04:22:01;;;;;;;8.60;6.87;;;4.00;99.90;;;;;;5031413;28;20192;-71
2022/04/21 04:24:28;;;;;;;9.37;7.00;;;3.90;99.90;;;;;;5030340;28;20450;-70
2022/04/21 04:26:54;;;;;;;8.23;7.03;;;4.00;99.90;;;;;;5031394;28;20439;-71
2022/04/21 04:29:22;;;;;;;10.07;7.90;;;3.90;99.90;;;;;;5031920;28;20423;-71
2022/04/21 04:31:54;;;;;;;8.17;6.80;;;3.80;99.90;;;;;;5030035;28;20528;-72
2022/04/21 04:34:21;;;;;;;10.77;7.60;;;3.80;99.90;;;;;;5010796;28;20429;-71
2022/04/21 04:36:47;;;;;;;8.53;6.50;;;3.80;99.90;;;;;;5010598;28;20451;-71
2022/04/21 04:39:14;;;;;;;9.30;6.73;;;3.90;99.90;;;;;;5028992;28;20480;-71
2022/04/21 04:44:23;;;;;;;9.37;6.60;;;4.00;99.90;;;;;;5029239;28;20484;-70
2022/04/21 04:46:49;;;;;;;9.03;6.87;;;4.00;99.90;;;;;;5016126;28;20438;-70
2022/04/21 04:49:15;;;;;;;12.70;8.27;;;4.00;99.90;;;;;;5052368;28;20199;-70
2022/04/21 04:51:41;;;;;;;8.70;7.17;;;3.90;99.90;;;;;;5037774;28;20222;-71
2022/04/21 04:54:08;;;;;;;10.27;8.27;;;3.80;99.90;;;;;;5030559;28;20237;-71
2022/04/21 04:56:35;;;;;;;10.00;7.43;;;3.90;99.90;;;;;;5012764;28;20435;-71
2022/04/21 04:59:01;;;;;;;9.83;8.07;;;4.00;99.90;;;;;;5029491;28;20849;-71
2022/04/21 05:01:31;;;;;;;11.07;8.03;;;4.00;99.90;;;;;;5029561;28;20428;-71
2022/04/21 05:04:17;;;;;;;11.23;8.67;;;4.00;99.90;;;;;;5029596;28;20192;-72
2022/04/21 05:06:44;;;;;;;14.03;8.03;;;4.10;99.90;;;;;;4994640;28;20453;-71
2022/04/21 05:09:13;;;;;;;13.47;7.70;;;4.20;99.90;;;;;;5010998;28;20563;-71
2022/04/21 05:11:39;;;;;;;7.70;6.90;;;4.30;99.90;;;;;;5028816;28;20498;-71
2022/04/21 05:14:09;;;;;;;9.53;7.30;;;4.30;99.90;;;;;;5028879;28;20943;-71
2022/04/21 05:16:37;;;;;;;10.27;8.23;;;4.30;99.90;;;;;;5010951;28;20443;-71
2022/04/21 05:19:09;;;;;;;18.50;6.77;;;4.40;99.90;;;;;;5028805;28;20889;-71
2022/04/21 05:21:36;;;;;;;11.38;8.27;;;4.50;99.90;;;;;;5028749;28;20427;-70
2022/04/21 05:24:03;;;;;;;13.80;8.43;;;4.50;99.90;;;;;;5028620;28;20197;-71
2022/04/21 05:26:31;;;;;;;11.33;7.37;;;4.50;99.90;;;;;;5028580;28;20872;-71
2022/04/21 05:28:58;;;;;;;10.90;7.40;;;4.50;99.90;;;;;;5028470;28;20419;-71
2022/04/21 05:31:26;;;;;;;11.47;7.70;;;4.50;99.90;;;;;;5010871;28;20418;-71
2022/04/21 05:33:52;;;;;;;11.57;8.57;;;4.80;99.90;;;;;;5028667;28;20479;-71
2022/04/21 05:36:19;;;;;;;10.60;8.03;;;4.70;99.90;;;;;;5028572;28;20418;-71
2022/04/21 05:38:46;;;;;;;9.77;7.97;;;4.80;99.90;;;;;;5028499;28;20430;-71
2022/04/21 05:41:13;;;;;;;8.90;7.23;;;4.90;99.90;;;;;;5010875;28;20801;-71
2022/04/21 05:43:41;;;;;;;23.37;7.73;;;5.10;99.90;;;;;;5028284;28;20419;-71
2022/04/21 05:46:08;;;;;;;10.87;8.30;;;5.30;99.90;;;;;;5028116;28;20426;-71
2022/04/21 05:48:36;;;;;;;9.20;7.40;;;5.50;99.90;;;;;;4993410;28;21029;-71
2022/04/21 05:51:03;;;;;;;9.97;7.50;;;5.80;99.90;;;;;;5028116;28;20466;-71
2022/04/21 05:53:31;;;;;;;10.23;6.93;;;5.90;99.90;;;;;;5028038;28;20470;-72
2022/04/21 05:55:57;;;;;;;11.33;8.23;;;6.00;99.90;;;;;;5010566;28;20474;-72
2022/04/21 05:58:23;;;;;;;9.27;6.93;;;6.30;99.90;;;;;;5028001;28;20467;-71
2022/04/21 06:00:49;;;;;;;10.70;8.43;;;6.60;99.90;;;;;;5009993;28;20431;-72
2022/04/21 06:03:15;;;;;;;8.33;7.37;;;6.90;99.90;;;;;;5027977;28;20480;-72
2022/04/21 06:05:41;;;;;;;9.10;7.70;;;7.10;99.90;;;;;;5028330;28;20192;-71
2022/04/21 06:08:07;;;;;;;10.03;8.47;;;7.40;99.90;;;;;;5028048;28;20483;-70
2022/04/21 06:10:36;;;;;;;10.83;8.70;;;7.60;99.90;;;;;;5028045;28;20427;-71
2022/04/21 06:13:05;;;;;;;11.70;8.57;;;7.80;99.90;;;;;;5010069;28;20475;-71
2022/04/21 06:15:32;;;;;;;17.43;9.03;;;8.00;99.90;;;;;;5010315;28;20428;-71
2022/04/21 06:17:59;;;;;;;9.97;8.40;;;8.10;99.50;;;;;;5027721;28;20480;-71
2022/04/21 06:20:26;;;;;;;9.53;8.30;;;8.30;99.40;;;;;;5027748;28;20473;-71
2022/04/21 06:22:51;;;;;;;12.43;8.37;;;8.60;99.00;;;;;;5028086;28;20458;-71
2022/04/21 06:25:17;;;;;;;10.33;8.10;;;8.90;98.40;;;;;;5010119;28;20475;-71
2022/04/21 06:27:43;;;;;;;12.73;8.50;;;9.10;98.00;;;;;;5027606;28;20231;-71
2022/04/21 06:30:09;;;;;;;10.53;7.80;;;9.20;96.90;;;;;;5010589;28;20192;-71
2022/04/21 06:32:34;;;;;;;14.60;7.50;;;9.40;97.20;;;;;;5028385;28;20223;-69
2022/04/21 06:35:00;;;;;;;13.13;7.63;;;9.60;96.60;;;;;;5010578;28;20249;-72
2022/04/21 06:37:25;;;;;;;9.50;7.70;;;9.90;96.20;;;;;;5028107;28;20212;-71
2022/04/21 06:39:51;;;;;;;13.63;8.50;;;10.00;94.50;;;;;;5010533;28;20196;-71
2022/04/21 06:42:17;;;;;;;13.60;9.83;;;10.20;95.00;;;;;;5010553;28;20189;-71
2022/04/21 06:50:10;;;;;;;11.60;8.70;;;10.60;94.30;;;;;;5013145;28;20528;-71
2022/04/21 06:52:37;;;;;;;9.67;8.50;;;10.80;93.80;;;;;;5028016;28;20973;-71
2022/04/21 06:55:03;;;;;;;19.43;9.57;;;10.80;93.90;;;;;;5028383;28;20853;-71
2022/04/21 06:57:29;;;;;;;11.17;9.43;;;10.90;93.90;;;;;;5027977;28;20442;-71
2022/04/21 06:59:55;;;;;;;18.23;8.80;;;11.00;93.50;;;;;;5027962;28;20500;-70
2022/04/21 07:02:31;;;;;;;13.87;8.23;;;11.10;92.90;;;;;;4993441;28;20193;-72
2022/04/21 07:05:08;;;;;;;11.00;9.47;;;11.40;92.80;;;;;;5028083;28;20190;-71
2022/04/21 07:07:34;;;;;;;10.20;9.10;;;11.50;93.10;;;;;;5028262;28;20493;-71
2022/04/21 07:10:00;;;;;;;10.43;8.60;;;11.60;92.00;;;;;;5027805;28;20425;-72
2022/04/21 07:12:30;;;;;;;9.27;7.80;;;11.70;92.50;;;;;;5027616;28;20226;-72
2022/04/21 07:15:00;;;;;;;11.97;9.07;;;11.70;92.40;;;;;;5027724;28;20200;-71
2022/04/21 07:17:26;;;;;;;15.93;9.50;;;11.80;92.30;;;;;;5027460;28;20442;-71
2022/04/21 07:19:52;;;;;;;11.20;8.90;;;11.90;92.40;;;;;;5027272;28;20416;-72
2022/04/21 07:22:25;;;;;;;15.13;10.13;;;12.00;92.60;;;;;;5027708;28;20800;-72
2022/04/21 07:24:54;;;;;;;11.97;9.00;;;12.10;92.10;;;;;;5027218;28;20209;-72
2022/04/21 07:27:21;;;;;;;17.57;9.47;;;12.10;92.00;;;;;;5027396;28;20448;-72
2022/04/21 07:29:47;;;;;;;11.53;9.63;;;12.10;92.00;;;;;;5027374;28;20915;-71
2022/04/21 07:32:13;;;;;;;12.13;9.40;;;12.20;91.80;;;;;;5027116;28;20473;-72
2022/04/21 07:34:38;;;;;;;10.53;8.63;;;12.20;92.10;;;;;;5036038;28;20239;-72
2022/04/21 07:37:05;;;;;;;11.57;9.80;;;12.40;92.10;;;;;;5035046;28;20442;-72
2022/04/21 07:39:31;;;;;;;15.83;10.47;;;12.50;91.70;;;;;;5028585;28;20186;-72
2022/04/21 07:41:58;;;;;;;14.77;10.63;;;12.50;91.40;;;;;;5030071;28;20429;-72
2022/04/21 07:44:29;;;;;;;11.50;9.03;;;12.50;91.80;;;;;;5030020;28;20426;-72
2022/04/21 07:46:55;;;;;;;16.90;10.13;;;12.60;91.90;;;;;;5030033;28;20467;-72
2022/04/21 07:55:09;;;;;;;13.30;10.13;;;13.10;91.80;;;;;;4949735;29;21272;-71
2022/04/21 07:57:35;;;;;;;19.77;10.70;;;13.20;91.30;;;;;;5000162;28;20443;-72
2022/04/21 08:00:02;;;;;;;19.10;11.67;;;13.30;91.10;;;;;;5011869;28;20423;-72
2022/04/21 08:02:28;;;;;;;15.27;10.70;;;13.60;91.30;;;;;;5029776;28;20513;-72
2022/04/21 08:04:53;;;;;;;12.90;11.57;;;13.60;91.60;;;;;;5011904;28;21098;-72
2022/04/21 08:07:19;;;;;;;16.37;11.77;;;13.60;91.60;;;;;;5029566;28;20213;-72
2022/04/21 08:09:45;;;;;;;15.20;11.77;;;13.50;91.40;;;;;;5011962;28;20196;-72
2022/04/21 08:12:10;;;;;;;17.43;12.90;;;13.70;91.10;;;;;;5029606;28;20677;-72
2022/04/21 08:14:36;;;;;;;15.17;11.50;;;13.80;90.40;;;;;;5029741;28;20199;-72
2022/04/21 08:17:03;;;;;;;14.17;11.90;;;14.00;90.00;;;;;;5029569;28;20212;-72
2022/04/21 08:19:29;;;;;;;17.20;12.27;;;14.10;91.70;;;;;;5029662;28;20183;-72
2022/04/21 08:21:54;;;;;;;15.70;11.90;;;14.30;91.30;;;;;;5011610;28;20435;-73
2022/04/21 08:32:43;;;;;;;12.20;10.93;;;14.90;88.30;;;;;;5029385;28;20512;-72
2022/04/21 08:35:10;;;;;;;14.63;12.37;;;15.00;86.20;;;;;;5013687;28;20481;-72
2022/04/21 08:37:36;;;;;;;16.57;12.17;;;15.20;84.60;;;;;;5029773;28;20527;-72
2022/04/21 08:40:06;;;;;;;16.53;12.03;;;15.30;84.60;;;;;;5029831;28;20418;-72
2022/04/21 08:42:39;;;;;;;12.53;10.60;;;15.20;83.30;;;;;;5011749;28;20441;-72
2022/04/21 08:45:09;;;;;;;11.97;10.60;;;15.40;85.50;;;;;;5029632;28;20425;-72
2022/04/21 08:47:39;;;;;;;15.07;11.63;;;15.60;86.10;;;;;;4995068;28;20459;-72
2022/04/21 08:50:07;;;;;;;17.13;11.33;;;15.70;85.20;;;;;;5028766;28;20419;-72
2022/04/21 08:52:34;;;;;;;14.20;12.43;;;15.90;83.80;;;;;;5029148;28;20463;-72
2022/04/21 08:55:02;;;;;;;16.40;12.07;;;16.20;84.90;;;;;;5029358;28;20411;-72
2022/04/21 08:57:29;;;;;;;11.80;10.60;;;16.40;82.10;;;;;;5029447;28;20435;-72
2022/04/21 08:59:56;;;;;;;16.03;10.43;;;16.70;82.30;;;;;;5029815;28;20417;-72
2022/04/21 09:02:32;;;;;;;11.80;10.60;;;16.90;79.10;;;;;;5029204;28;20445;-73
2022/04/21 09:04:58;;;;;;;12.20;10.27;;;17.10;78.10;;;;;;5029032;28;20432;-72
2022/04/21 09:07:23;;;;;;;10.50;9.20;;;17.30;74.70;;;;;;5028833;28;20527;-73
2022/04/21 09:10:13;;;;;;;10.10;9.10;;;17.80;76.40;;;;;;5011720;28;20269;-73
2022/04/21 09:13:03;;;;;;;12.30;9.37;;;17.90;74.80;;;;;;5013621;28;20268;-73
2022/04/21 09:15:31;;;;;;;12.40;10.93;;;18.00;74.00;;;;;;5029464;28;20437;-72
2022/04/21 09:18:02;;;;;;;15.27;10.37;;;18.20;71.20;;;;;;5011965;28;20482;-73
2022/04/21 09:20:39;;;;;;;13.63;11.57;;;18.50;73.70;;;;;;5011813;28;20426;-73
2022/04/21 09:23:10;;;;;;;10.40;9.30;;;18.80;67.60;;;;;;5011243;28;20431;-72
2022/04/21 09:25:48;;;;;;;11.87;9.50;;;19.20;65.40;;;;;;5029603;28;20445;-72
2022/04/21 09:28:39;;;;;;;10.60;9.50;;;19.40;64.20;;;;;;5028056;28;20857;-72
2022/04/21 09:31:07;;;;;;;13.60;9.40;;;19.40;65.20;;;;;;5024241;28;20996;-73
2022/04/21 09:33:44;;;;;;;17.33;9.80;;;19.60;65.40;;;;;;5027857;28;20458;-73
2022/04/21 09:36:10;;;;;;;12.37;8.87;;;19.60;64.90;;;;;;5028082;28;20509;-73
2022/04/21 09:38:37;;;;;;;11.00;9.03;;;19.90;60.20;;;;;;5027802;28;20502;-73
2022/04/21 09:41:06;;;;;;;10.37;9.37;;;20.10;60.60;;;;;;5028026;28;20409;-72
2022/04/21 09:43:33;;;;;;;11.53;8.37;;;20.10;60.10;;;;;;5027765;28;20449;-73
2022/04/21 09:46:16;;;;;;;8.83;8.03;;;20.20;57.60;;;;;;5027783;28;20518;-73
2022/04/21 09:48:44;;;;;;;9.93;8.87;;;20.60;59.10;;;;;;5009709;28;21121;-73
2022/04/21 09:51:14;;;;;;;10.70;8.87;;;20.70;57.70;;;;;;5027675;28;20422;-73
2022/04/21 09:53:57;;;;;;;12.60;9.10;;;20.80;57.00;;;;;;5027440;28;20466;-72
2022/04/21 09:56:37;;;;;;;8.93;8.13;;;20.80;57.50;;;;;;5010199;28;20769;-73
2022/04/21 09:59:08;;;;;;;9.87;8.87;;;21.10;57.70;;;;;;5027531;28;20422;-73
2022/04/21 10:01:41;;;;;;;9.10;8.20;;;21.20;55.30;;;;;;5027183;28;20418;-72
2022/04/21 10:04:09;;;;;;;9.07;8.27;;;21.30;56.00;;;;;;5009570;28;20430;-73
2022/04/21 10:06:38;;;;;;;10.90;7.50;;;21.40;55.60;;;;;;5027751;28;20433;-74
2022/04/21 10:09:04;;;;;;;9.23;8.40;;;21.40;55.20;;;;;;5026460;28;21284;-73
2022/04/21 10:11:31;;;;;;;7.90;7.20;;;21.50;56.30;;;;;;5027078;28;20532;-73
2022/04/21 10:13:57;;;;;;;9.13;8.20;;;21.90;55.50;;;;;;5027154;28;20484;-72
2022/04/21 10:16:26;;;;;;;9.10;7.57;;;21.90;54.20;;;;;;5027053;28;20444;-73
2022/04/21 10:18:54;;;;;;;8.10;7.30;;;21.90;54.20;;;;;;5027085;28;20437;-72
2022/04/21 10:21:37;;;;;;;9.73;8.07;;;21.80;54.00;;;;;;5027173;28;20430;-72
2022/04/21 10:24:04;;;;;;;10.20;7.90;;;21.90;54.50;;;;;;5008917;28;20489;-73
2022/04/21 10:26:39;;;;;;;10.27;7.80;;;22.00;54.20;;;;;;5027036;28;20461;-73
2022/04/21 10:29:17;;;;;;;8.13;7.50;;;22.10;53.20;;;;;;5027005;28;20413;-73
2022/04/21 10:31:57;;;;;;;8.50;7.70;;;22.10;52.60;;;;;;5027040;28;20822;-72
2022/04/21 10:34:40;;;;;;;8.90;7.07;;;21.90;52.50;;;;;;5009214;28;20502;-73
2022/04/21 10:37:18;;;;;;;8.77;7.33;;;21.90;52.50;;;;;;5009319;28;21143;-73
2022/04/21 10:39:58;;;;;;;8.30;7.50;;;21.90;53.60;;;;;;5009379;28;20411;-73
2022/04/21 10:42:24;;;;;;;8.07;7.27;;;22.10;52.70;;;;;;5026782;28;20760;-74
2022/04/21 10:44:54;;;;;;;8.90;7.70;;;22.00;53.00;;;;;;5026706;28;20440;-74
2022/04/21 10:47:38;;;;;;;10.13;7.83;;;22.00;53.10;;;;;;5008749;28;20581;-74
2022/04/21 10:50:13;;;;;;;7.90;7.03;;;22.30;53.50;;;;;;5026894;28;20457;-74
2022/04/21 10:57:58;;;;;;;9.00;7.37;;;22.60;52.20;;;;;;5026641;28;20423;-74
2022/04/21 11:00:25;;;;;;;8.07;7.27;;;22.10;50.20;;;;;;5009256;28;20422;-73
2022/04/21 11:03:07;;;;;;;11.03;6.87;;;22.40;52.70;;;;;;5027026;28;20445;-74
2022/04/21 11:05:35;;;;;;;9.70;8.70;;;22.60;51.00;;;;;;5008940;28;20797;-74
2022/04/21 11:08:04;;;;;;;8.47;7.43;;;22.60;49.20;;;;;;5026684;28;20442;-74
2022/04/21 11:10:38;;;;;;;9.27;7.27;;;22.90;51.40;;;;;;5026694;28;20510;-74
2022/04/21 11:13:08;;;;;;;8.70;7.90;;;23.40;50.80;;;;;;5027515;28;20557;-74
2022/04/21 11:15:39;;;;;;;10.23;7.80;;;23.30;49.40;;;;;;5030579;28;20461;-73
2022/04/21 11:18:13;;;;;;;12.90;7.87;;;23.10;50.00;;;;;;5030358;28;20471;-72
2022/04/21 11:20:40;;;;;;;8.73;7.60;;;22.70;49.40;;;;;;5013290;28;20924;-72
2022/04/21 11:23:44;;;;;;;8.53;7.67;;;22.80;50.50;;;;;;5030567;28;20469;-72
2022/04/21 11:26:10;;;;;;;8.23;7.53;;;22.90;51.10;;;;;;5030321;28;21026;-75
2022/04/21 11:28:41;;;;;;;10.37;7.97;;;23.20;51.00;;;;;;5030214;28;20539;-75
2022/04/21 11:31:06;;;;;;;8.00;7.07;;;23.20;49.80;;;;;;5030368;28;20189;-74
2022/04/21 11:33:32;;;;;;;8.50;7.37;;;23.00;49.70;;;;;;5030495;28;20474;-73
2022/04/21 11:36:02;;;;;;;8.00;7.30;;;23.00;50.60;;;;;;5030780;28;20258;-74
2022/04/21 11:38:28;;;;;;;8.20;7.37;;;22.90;51.60;;;;;;5030704;28;20580;-73
2022/04/21 11:40:54;;;;;;;10.47;7.27;;;22.10;50.00;;;;;;5030448;28;20424;-74
2022/04/21 11:43:19;;;;;;;8.70;6.80;;;21.50;50.50;;;;;;5030572;28;20212;-74
2022/04/21 11:45:59;;;;;;;8.43;7.60;;;21.00;51.30;;;;;;5030477;28;20987;-74
2022/04/21 11:48:30;;;;;;;8.07;7.37;;;20.40;52.40;;;;;;5030469;28;20207;-74
2022/04/21 11:50:56;;;;;;;12.20;6.83;;;20.50;53.70;;;;;;5030679;28;20928;-73
2022/04/21 11:53:23;;;;;;;9.83;6.73;;;21.10;54.10;;;;;;5030540;28;20826;-74
2022/04/21 11:55:50;;;;;;;11.30;7.60;;;21.70;54.00;;;;;;5012494;28;20486;-74
2022/04/21 11:58:34;;;;;;;8.53;7.10;;;22.10;53.30;;;;;;5030086;28;20423;-74
2022/04/21 12:06:39;;;;;;;7.37;6.67;;;22.70;53.20;;;;;;5029688;28;20437;-73
2022/04/21 12:09:06;;;;;;;6.90;6.30;;;22.90;51.60;;;;;;5011476;28;20454;-74
2022/04/21 12:11:35;;;;;;;6.83;6.23;;;22.90;49.10;;;;;;5011575;28;20491;-72
2022/04/21 12:14:01;;;;;;;5.93;5.43;;;23.00;51.70;;;;;;5029439;28;20795;-72
2022/04/21 12:16:44;;;;;;;7.57;6.77;;;23.00;52.20;;;;;;5029270;28;20421;-72
2022/04/21 12:19:17;;;;;;;10.30;6.20;;;23.20;50.30;;;;;;5011735;28;20739;-72
2022/04/21 12:21:54;;;;;;;6.97;5.80;;;23.20;50.80;;;;;;5029659;28;20413;-72
2022/04/21 12:24:25;;;;;;;6.00;5.40;;;23.30;51.50;;;;;;5029747;28;20443;-72
2022/04/21 12:26:52;;;;;;;8.80;6.17;;;23.50;50.50;;;;;;5030189;28;20428;-73
2022/04/21 12:29:19;;;;;;;5.93;5.47;;;23.10;49.40;;;;;;5031927;28;20449;-72
2022/04/21 12:31:56;;;;;;;5.73;5.23;;;23.00;49.00;;;;;;5030456;28;20860;-72
2022/04/21 12:34:27;;;;;;;7.33;5.73;;;23.20;49.70;;;;;;5030140;28;20408;-73
2022/04/21 12:36:58;;;;;;;5.57;5.07;;;23.30;49.30;;;;;;5012317;28;20464;-73
2022/04/21 12:39:25;;;;;;;4.63;4.23;;;23.40;50.70;;;;;;5029256;28;20791;-72
2022/04/21 12:41:52;;;;;;;5.63;4.73;;;23.30;50.20;;;;;;5029097;28;20909;-72
2022/04/21 12:44:19;;;;;;;7.20;5.00;;;23.40;50.10;;;;;;5011327;28;20873;-72
2022/04/21 12:46:56;;;;;;;5.53;5.13;;;23.60;49.50;;;;;;5028776;28;20471;-72
2022/04/21 12:49:22;;;;;;;4.60;4.20;;;23.30;50.20;;;;;;5010667;28;20506;-72
2022/04/21 12:51:48;;;;;;;4.83;4.43;;;23.30;51.10;;;;;;5028355;28;20451;-72
2022/04/21 12:54:25;;;;;;;4.70;4.30;;;23.10;48.80;;;;;;5028482;28;20424;-73
2022/04/21 12:56:53;;;;;;;4.83;4.43;;;23.30;50.10;;;;;;5010330;28;20208;-73
2022/04/21 12:59:19;;;;;;;4.50;4.10;;;23.40;49.20;;;;;;5028617;28;20481;-71
2022/04/21 13:01:45;;;;;;;4.57;3.97;;;23.10;48.50;;;;;;5028486;28;20827;-71
2022/04/21 13:04:10;;;;;;;4.07;3.77;;;22.80;48.90;;;;;;5010780;28;20272;-73
2022/04/21 13:06:37;;;;;;;4.00;3.57;;;22.50;48.40;;;;;;5010691;28;20197;-72
2022/04/21 13:09:02;;;;;;;4.23;3.93;;;22.00;49.60;;;;;;5010591;28;20176;-71
2022/04/21 13:11:28;;;;;;;3.83;3.53;;;21.70;51.00;;;;;;5028445;28;20418;-72
2022/04/21 13:13:54;;;;;;;4.23;3.83;;;21.90;51.70;;;;;;4977590;28;20216;-71
2022/04/21 13:16:20;;;;;;;4.10;3.80;;;22.30;51.10;;;;;;5028232;28;20196;-72
2022/04/21 13:18:46;;;;;;;4.37;4.03;;;22.10;49.80;;;;;;5028686;28;20427;-72
2022/04/21 13:23:56;;;;;;;3.50;3.30;;;21.30;50.70;;;;;;5028196;28;20603;-72
2022/04/21 13:26:28;;;;;;;5.80;3.77;;;21.70;53.00;;;;;;5027796;28;20428;-72
2022/04/21 13:28:55;;;;;;;4.50;3.53;;;22.10;53.00;;;;;;5027751;28;20193;-72
2022/04/21 13:34:05;;;;;;;3.87;3.57;;;22.70;51.80;;;;;;5027850;28;20498;-72
2022/04/21 13:36:31;;;;;;;4.90;3.40;;;22.60;51.00;;;;;;5027737;28;20845;-72
2022/04/21 13:38:58;;;;;;;4.97;3.57;;;22.30;50.10;;;;;;5009898;28;20734;-72
2022/04/21 13:41:24;;;;;;;3.87;3.50;;;21.80;49.80;;;;;;5027620;28;20189;-72
2022/04/21 13:43:49;;;;;;;4.73;3.60;;;22.00;50.70;;;;;;5010051;28;20496;-73
2022/04/21 13:46:15;;;;;;;3.60;2.93;;;22.20;52.10;;;;;;5012624;28;20193;-72
2022/04/21 13:48:41;;;;;;;4.00;3.30;;;22.40;51.40;;;;;;5011141;28;20600;-72